VLVT Airport Information

Runway Information
Runway 13 Length 9843 ft width 148 ft
Elevation 563 ft Threshold ft Heading 135
Runway 31 Length 9843 ft Width 148 ft
Elevation 563 ft Threshold ft Heading 315
Airport Frequencies
Type APP Name VIENTIANE Frequency 119.7 MHZ
Type TWR Name VIENTIANE Frequency 118.1 MHZ
Airport Navaids
Type NDB Name Vientiane Frequency 205 KHZ
Type NDB Name Thangone Frequency 405 KHZ
Type VOR-DME Name Vientiane Frequency 117500 KHZ
Type NDB Name Wattay Frequency 389 KHZ
Airport Weather Information & NOTAM
ADDS - METARS form results

(1835 UTC 27 January 2023)
Data provider http://aviationweather.gov/metar/data/
 
Forecast for: VLVT (VIENTIANE/WATTAY, LA)
Text: TAF VLVT 271700Z 2718/2818 09010KT 4000 BR SCT050 BKN200
Forecast period: 1800 UTC 27 January 2023 to 1800 UTC 28 January 2023
Forecast type: FROM: standard forecast or significant change
Winds: from the E (90 degrees) at 12 MPH (10 knots; 5.1 m/s)
Visibility: 2.49 miles (4.01 km)
Ceiling: 20000 feet AGL
Clouds: scattered clouds at 5000 feet AGL
broken clouds at 20000 feet AGL
Weather: BR  (mist)